Drayton Valley, Canada
Current Conditions -  °F | °C
As of 9:00 AM on Saturday 25 Oct 2014 (Local Time) from CWSE Reporting Station
Broken Clouds Broken Clouds  
Wind Chill: 35°   Ceiling: 8900
Heat Index: 35°   Visibility: 15mi
Dew Point: 22°   Wind: 3mph
Humidity: 59%   Direction: 160°SSE
Pressure: 29.96"   Gusts: NA
Location:  53.22°N, 114.98°W
Report Text: CWSE 251500Z COR 16003KT 15SM BKN089 BKN207 02/M06 A2996 RMK SLP167 TR CI T00151058 WSI/SWOB
Loading
Personal Weather Stations






























Interactive Weather Map
Tropical Storm Tracking
New forecast layout! Learn more

10-Day Weather Forecast

Advertisements
Track Severe Weather on mobile